sensor_id;sensor_type;location;lat;lon;timestamp;temperature;humidity
15707;DHT22;7953;54.302;10.128;2023-03-14T00:00:07;10.40;99.90
15707;DHT22;7953;54.302;10.128;2023-03-14T00:02:36;10.40;99.90
15707;DHT22;7953;54.302;10.128;2023-03-14T00:05:04;10.40;99.90
15707;DHT22;7953;54.302;10.128;2023-03-14T00:07:33;10.40;99.90
15707;DHT22;7953;54.302;10.128;2023-03-14T00:10:02;10.40;99.90
15707;DHT22;7953;54.302;10.128;2023-03-14T00:12:30;10.40;99.90
15707;DHT22;7953;54.302;10.128;2023-03-14T00:14:57;10.40;99.90
15707;DHT22;7953;54.302;10.128;2023-03-14T00:17:27;10.30;99.90
15707;DHT22;7953;54.302;10.128;2023-03-14T00:19:54;10.30;99.90
15707;DHT22;7953;54.302;10.128;2023-03-14T00:22:21;10.30;99.90
15707;DHT22;7953;54.302;10.128;2023-03-14T00:24:48;10.20;99.90
15707;DHT22;7953;54.302;10.128;2023-03-14T00:27:15;10.20;99.90
15707;DHT22;7953;54.302;10.128;2023-03-14T00:29:43;10.20;99.90
15707;DHT22;7953;54.302;10.128;2023-03-14T00:32:10;10.10;99.90
15707;DHT22;7953;54.302;10.128;2023-03-14T00:34:38;10.10;99.90
15707;DHT22;7953;54.302;10.128;2023-03-14T00:37:05;10.20;99.90
15707;DHT22;7953;54.302;10.128;2023-03-14T00:39:32;10.20;99.90
15707;DHT22;7953;54.302;10.128;2023-03-14T00:41:59;10.20;99.90
15707;DHT22;7953;54.302;10.128;2023-03-14T00:44:26;10.10;99.90
15707;DHT22;7953;54.302;10.128;2023-03-14T00:46:53;10.20;99.90
15707;DHT22;7953;54.302;10.128;2023-03-14T00:49:19;10.20;99.90
15707;DHT22;7953;54.302;10.128;2023-03-14T00:51:48;10.20;99.90
15707;DHT22;7953;54.302;10.128;2023-03-14T00:54:14;10.20;99.90
15707;DHT22;7953;54.302;10.128;2023-03-14T00:56:41;10.20;99.90
15707;DHT22;7953;54.302;10.128;2023-03-14T00:59:08;10.30;99.90
15707;DHT22;7953;54.302;10.128;2023-03-14T01:01:35;10.30;99.90
15707;DHT22;7953;54.302;10.128;2023-03-14T01:04:02;10.30;99.90
15707;DHT22;7953;54.302;10.128;2023-03-14T01:06:29;10.30;99.90
15707;DHT22;7953;54.302;10.128;2023-03-14T01:08:57;10.20;99.90
15707;DHT22;7953;54.302;10.128;2023-03-14T01:11:26;10.20;99.90
15707;DHT22;7953;54.302;10.128;2023-03-14T01:13:54;10.20;99.90
15707;DHT22;7953;54.302;10.128;2023-03-14T01:16:23;10.20;99.90
15707;DHT22;7953;54.302;10.128;2023-03-14T01:18:50;10.20;99.90
15707;DHT22;7953;54.302;10.128;2023-03-14T01:21:20;10.20;99.90
15707;DHT22;7953;54.302;10.128;2023-03-14T01:23:47;10.20;99.90
15707;DHT22;7953;54.302;10.128;2023-03-14T01:26:17;10.10;99.90
15707;DHT22;7953;54.302;10.128;2023-03-14T01:28:45;10.10;99.90
15707;DHT22;7953;54.302;10.128;2023-03-14T01:31:13;10.20;99.90
15707;DHT22;7953;54.302;10.128;2023-03-14T01:33:40;10.20;99.90
15707;DHT22;7953;54.302;10.128;2023-03-14T01:36:09;10.20;99.90
15707;DHT22;7953;54.302;10.128;2023-03-14T01:38:37;10.10;99.90
15707;DHT22;7953;54.302;10.128;2023-03-14T01:41:06;10.10;99.90
15707;DHT22;7953;54.302;10.128;2023-03-14T01:43:34;10.10;99.90
15707;DHT22;7953;54.302;10.128;2023-03-14T01:46:24;10.20;99.90
15707;DHT22;7953;54.302;10.128;2023-03-14T01:48:55;10.10;99.90
15707;DHT22;7953;54.302;10.128;2023-03-14T01:51:27;10.20;99.90
15707;DHT22;7953;54.302;10.128;2023-03-14T01:54:02;10.20;99.90
15707;DHT22;7953;54.302;10.128;2023-03-14T01:56:33;10.20;99.90
15707;DHT22;7953;54.302;10.128;2023-03-14T01:59:04;10.20;99.90
15707;DHT22;7953;54.302;10.128;2023-03-14T02:01:33;10.30;99.90
15707;DHT22;7953;54.302;10.128;2023-03-14T02:04:03;10.30;99.90
15707;DHT22;7953;54.302;10.128;2023-03-14T02:06:35;10.30;99.90
15707;DHT22;7953;54.302;10.128;2023-03-14T02:09:04;10.30;99.90
15707;DHT22;7953;54.302;10.128;2023-03-14T02:11:31;10.20;99.90
15707;DHT22;7953;54.302;10.128;2023-03-14T02:14:00;10.20;99.90
15707;DHT22;7953;54.302;10.128;2023-03-14T02:16:28;10.20;99.90
15707;DHT22;7953;54.302;10.128;2023-03-14T02:18:55;10.20;99.90
15707;DHT22;7953;54.302;10.128;2023-03-14T02:21:27;10.10;99.90
15707;DHT22;7953;54.302;10.128;2023-03-14T02:24:09;10.10;99.90
15707;DHT22;7953;54.302;10.128;2023-03-14T02:26:43;10.20;99.90
15707;DHT22;7953;54.302;10.128;2023-03-14T02:29:13;10.20;99.90
15707;DHT22;7953;54.302;10.128;2023-03-14T02:31:40;10.20;99.90
15707;DHT22;7953;54.302;10.128;2023-03-14T02:34:07;10.20;99.90
15707;DHT22;7953;54.302;10.128;2023-03-14T02:36:34;10.20;99.90
15707;DHT22;7953;54.302;10.128;2023-03-14T02:39:08;10.30;99.90
15707;DHT22;7953;54.302;10.128;2023-03-14T02:41:37;10.20;99.90
15707;DHT22;7953;54.302;10.128;2023-03-14T02:44:04;10.20;99.90
15707;DHT22;7953;54.302;10.128;2023-03-14T02:46:32;10.10;99.90
15707;DHT22;7953;54.302;10.128;2023-03-14T02:49:02;10.10;99.90
15707;DHT22;7953;54.302;10.128;2023-03-14T02:51:30;10.10;99.90
15707;DHT22;7953;54.302;10.128;2023-03-14T02:53:58;10.20;99.90
15707;DHT22;7953;54.302;10.128;2023-03-14T02:56:25;10.20;99.90
15707;DHT22;7953;54.302;10.128;2023-03-14T02:58:52;10.20;99.90
15707;DHT22;7953;54.302;10.128;2023-03-14T03:01:19;10.20;99.90
15707;DHT22;7953;54.302;10.128;2023-03-14T03:03:47;10.20;99.90
15707;DHT22;7953;54.302;10.128;2023-03-14T03:06:15;10.10;99.90
15707;DHT22;7953;54.302;10.128;2023-03-14T03:08:42;10.10;99.90
15707;DHT22;7953;54.302;10.128;2023-03-14T03:11:09;10.10;99.90
15707;DHT22;7953;54.302;10.128;2023-03-14T03:13:35;10.10;99.90
15707;DHT22;7953;54.302;10.128;2023-03-14T03:16:03;10.10;99.90
15707;DHT22;7953;54.302;10.128;2023-03-14T03:18:30;10.10;99.90
15707;DHT22;7953;54.302;10.128;2023-03-14T03:21:01;10.00;99.90
15707;DHT22;7953;54.302;10.128;2023-03-14T03:23:28;10.00;99.90
15707;DHT22;7953;54.302;10.128;2023-03-14T03:25:55;10.00;99.90
15707;DHT22;7953;54.302;10.128;2023-03-14T03:28:22;10.10;99.90
15707;DHT22;7953;54.302;10.128;2023-03-14T03:30:49;10.10;99.90
15707;DHT22;7953;54.302;10.128;2023-03-14T03:33:16;10.10;99.90
15707;DHT22;7953;54.302;10.128;2023-03-14T03:35:44;10.10;99.90
15707;DHT22;7953;54.302;10.128;2023-03-14T03:38:13;10.10;99.90
15707;DHT22;7953;54.302;10.128;2023-03-14T03:40:41;10.10;99.90
15707;DHT22;7953;54.302;10.128;2023-03-14T03:43:08;10.10;99.90
15707;DHT22;7953;54.302;10.128;2023-03-14T03:45:34;10.10;99.90
15707;DHT22;7953;54.302;10.128;2023-03-14T03:48:01;10.20;99.90
15707;DHT22;7953;54.302;10.128;2023-03-14T03:50:28;10.20;99.90
15707;DHT22;7953;54.302;10.128;2023-03-14T03:52:55;10.20;99.90
15707;DHT22;7953;54.302;10.128;2023-03-14T03:55:23;10.20;99.90
15707;DHT22;7953;54.302;10.128;2023-03-14T03:57:51;10.20;99.90
15707;DHT22;7953;54.302;10.128;2023-03-14T04:00:18;10.30;99.90
15707;DHT22;7953;54.302;10.128;2023-03-14T04:02:45;10.30;99.90
15707;DHT22;7953;54.302;10.128;2023-03-14T04:05:12;10.30;99.90
15707;DHT22;7953;54.302;10.128;2023-03-14T04:07:38;10.30;99.90
15707;DHT22;7953;54.302;10.128;2023-03-14T04:10:06;10.30;99.90
15707;DHT22;7953;54.302;10.128;2023-03-14T04:12:34;10.30;99.90
15707;DHT22;7953;54.302;10.128;2023-03-14T04:15:01;10.20;99.90
15707;DHT22;7953;54.302;10.128;2023-03-14T04:17:28;10.20;99.90
15707;DHT22;7953;54.302;10.128;2023-03-14T04:19:54;10.10;99.90
15707;DHT22;7953;54.302;10.128;2023-03-14T04:22:21;10.10;99.90
15707;DHT22;7953;54.302;10.128;2023-03-14T04:24:48;10.10;99.90
15707;DHT22;7953;54.302;10.128;2023-03-14T04:27:15;10.00;99.90
15707;DHT22;7953;54.302;10.128;2023-03-14T04:29:43;10.00;99.90
15707;DHT22;7953;54.302;10.128;2023-03-14T04:32:10;9.90;99.90
15707;DHT22;7953;54.302;10.128;2023-03-14T04:34:37;9.90;99.90
15707;DHT22;7953;54.302;10.128;2023-03-14T04:37:04;9.80;99.90
15707;DHT22;7953;54.302;10.128;2023-03-14T04:39:31;9.80;99.90
15707;DHT22;7953;54.302;10.128;2023-03-14T04:41:57;9.80;99.90
15707;DHT22;7953;54.302;10.128;2023-03-14T04:44:24;9.80;99.90
15707;DHT22;7953;54.302;10.128;2023-03-14T04:46:53;9.70;99.90
15707;DHT22;7953;54.302;10.128;2023-03-14T04:49:20;9.70;99.90
15707;DHT22;7953;54.302;10.128;2023-03-14T04:51:47;9.70;99.90
15707;DHT22;7953;54.302;10.128;2023-03-14T04:54:16;9.70;99.90
15707;DHT22;7953;54.302;10.128;2023-03-14T04:56:43;9.70;99.90
15707;DHT22;7953;54.302;10.128;2023-03-14T04:59:09;9.60;99.90
15707;DHT22;7953;54.302;10.128;2023-03-14T05:01:36;9.60;99.90
15707;DHT22;7953;54.302;10.128;2023-03-14T05:04:04;9.60;99.90
15707;DHT22;7953;54.302;10.128;2023-03-14T05:06:31;9.60;99.90
15707;DHT22;7953;54.302;10.128;2023-03-14T05:08:58;9.50;99.90
15707;DHT22;7953;54.302;10.128;2023-03-14T05:11:25;9.50;99.90
15707;DHT22;7953;54.302;10.128;2023-03-14T05:13:52;9.40;99.90
15707;DHT22;7953;54.302;10.128;2023-03-14T05:16:19;9.40;99.90
15707;DHT22;7953;54.302;10.128;2023-03-14T05:18:46;9.40;99.90
15707;DHT22;7953;54.302;10.128;2023-03-14T05:21:14;9.30;99.90
15707;DHT22;7953;54.302;10.128;2023-03-14T05:23:41;9.30;99.90
15707;DHT22;7953;54.302;10.128;2023-03-14T05:26:08;9.20;99.90
15707;DHT22;7953;54.302;10.128;2023-03-14T05:28:35;9.20;99.90
15707;DHT22;7953;54.302;10.128;2023-03-14T05:31:06;9.20;99.90
15707;DHT22;7953;54.302;10.128;2023-03-14T05:33:33;9.20;99.90
15707;DHT22;7953;54.302;10.128;2023-03-14T05:36:00;9.00;99.90
15707;DHT22;7953;54.302;10.128;2023-03-14T05:38:28;9.00;99.90
15707;DHT22;7953;54.302;10.128;2023-03-14T05:40:55;8.90;99.90
15707;DHT22;7953;54.302;10.128;2023-03-14T05:43:22;8.90;99.90
15707;DHT22;7953;54.302;10.128;2023-03-14T05:45:49;8.90;99.90
15707;DHT22;7953;54.302;10.128;2023-03-14T05:48:16;8.80;99.90
15707;DHT22;7953;54.302;10.128;2023-03-14T05:50:43;8.80;99.90
15707;DHT22;7953;54.302;10.128;2023-03-14T05:53:10;8.80;99.90
15707;DHT22;7953;54.302;10.128;2023-03-14T05:55:39;8.70;99.90
15707;DHT22;7953;54.302;10.128;2023-03-14T05:58:06;8.70;99.90
15707;DHT22;7953;54.302;10.128;2023-03-14T06:00:33;8.70;99.90
15707;DHT22;7953;54.302;10.128;2023-03-14T06:03:00;8.70;99.90
15707;DHT22;7953;54.302;10.128;2023-03-14T06:05:27;8.70;99.90
15707;DHT22;7953;54.302;10.128;2023-03-14T06:07:53;8.60;99.90
15707;DHT22;7953;54.302;10.128;2023-03-14T06:10:20;8.60;99.90
15707;DHT22;7953;54.302;10.128;2023-03-14T06:12:49;8.60;99.90
15707;DHT22;7953;54.302;10.128;2023-03-14T06:15:15;8.60;99.90
15707;DHT22;7953;54.302;10.128;2023-03-14T06:17:42;8.70;99.90
15707;DHT22;7953;54.302;10.128;2023-03-14T06:20:10;8.70;99.90
15707;DHT22;7953;54.302;10.128;2023-03-14T06:22:37;8.70;99.90
15707;DHT22;7953;54.302;10.128;2023-03-14T06:25:05;8.70;99.90
15707;DHT22;7953;54.302;10.128;2023-03-14T06:27:33;8.80;99.90
15707;DHT22;7953;54.302;10.128;2023-03-14T06:30:01;8.80;99.90
15707;DHT22;7953;54.302;10.128;2023-03-14T06:32:29;8.90;99.90
15707;DHT22;7953;54.302;10.128;2023-03-14T06:34:56;9.00;99.90
15707;DHT22;7953;54.302;10.128;2023-03-14T06:37:26;9.00;99.90
15707;DHT22;7953;54.302;10.128;2023-03-14T06:39:53;9.10;99.90
15707;DHT22;7953;54.302;10.128;2023-03-14T06:42:20;9.10;99.90
15707;DHT22;7953;54.302;10.128;2023-03-14T06:44:47;9.20;99.90
15707;DHT22;7953;54.302;10.128;2023-03-14T06:47:15;9.20;99.90
15707;DHT22;7953;54.302;10.128;2023-03-14T06:49:42;9.20;99.90
15707;DHT22;7953;54.302;10.128;2023-03-14T06:52:09;9.20;99.90
15707;DHT22;7953;54.302;10.128;2023-03-14T06:54:36;9.30;99.90
15707;DHT22;7953;54.302;10.128;2023-03-14T06:57:03;9.30;99.90
15707;DHT22;7953;54.302;10.128;2023-03-14T06:59:30;9.30;99.90
15707;DHT22;7953;54.302;10.128;2023-03-14T07:01:56;9.30;99.90
15707;DHT22;7953;54.302;10.128;2023-03-14T07:04:25;9.30;99.90
15707;DHT22;7953;54.302;10.128;2023-03-14T07:06:51;9.30;99.90
15707;DHT22;7953;54.302;10.128;2023-03-14T07:09:18;9.40;99.90
15707;DHT22;7953;54.302;10.128;2023-03-14T07:11:45;9.40;99.90
15707;DHT22;7953;54.302;10.128;2023-03-14T07:14:12;9.40;99.90
15707;DHT22;7953;54.302;10.128;2023-03-14T07:16:39;9.40;99.90
15707;DHT22;7953;54.302;10.128;2023-03-14T07:19:06;9.50;99.90
15707;DHT22;7953;54.302;10.128;2023-03-14T07:21:34;9.50;99.90
15707;DHT22;7953;54.302;10.128;2023-03-14T07:24:01;9.50;99.90
15707;DHT22;7953;54.302;10.128;2023-03-14T07:26:28;9.50;99.90
15707;DHT22;7953;54.302;10.128;2023-03-14T07:28:55;9.50;99.90
15707;DHT22;7953;54.302;10.128;2023-03-14T07:31:22;9.50;99.90
15707;DHT22;7953;54.302;10.128;2023-03-14T07:33:48;9.50;99.90
15707;DHT22;7953;54.302;10.128;2023-03-14T07:36:15;9.40;99.90
15707;DHT22;7953;54.302;10.128;2023-03-14T07:38:44;9.50;99.90
15707;DHT22;7953;54.302;10.128;2023-03-14T07:41:11;9.50;99.90
15707;DHT22;7953;54.302;10.128;2023-03-14T07:43:37;9.50;99.90
15707;DHT22;7953;54.302;10.128;2023-03-14T07:46:05;9.60;99.90
15707;DHT22;7953;54.302;10.128;2023-03-14T07:48:32;9.70;99.90
15707;DHT22;7953;54.302;10.128;2023-03-14T07:50:59;9.70;99.90
15707;DHT22;7953;54.302;10.128;2023-03-14T07:53:26;9.70;99.90
15707;DHT22;7953;54.302;10.128;2023-03-14T07:55:54;9.70;99.90
15707;DHT22;7953;54.302;10.128;2023-03-14T07:58:21;9.60;99.90
15707;DHT22;7953;54.302;10.128;2023-03-14T08:00:48;9.60;99.90
15707;DHT22;7953;54.302;10.128;2023-03-14T08:03:15;9.70;99.90
15707;DHT22;7953;54.302;10.128;2023-03-14T08:05:43;9.60;99.90
15707;DHT22;7953;54.302;10.128;2023-03-14T08:08:10;9.60;99.90
15707;DHT22;7953;54.302;10.128;2023-03-14T08:10:37;9.60;99.90
15707;DHT22;7953;54.302;10.128;2023-03-14T08:13:05;9.60;99.90
15707;DHT22;7953;54.302;10.128;2023-03-14T08:15:32;9.60;99.90
15707;DHT22;7953;54.302;10.128;2023-03-14T08:17:59;9.60;99.90
15707;DHT22;7953;54.302;10.128;2023-03-14T08:20:28;9.60;99.90
15707;DHT22;7953;54.302;10.128;2023-03-14T08:22:56;9.60;99.90
15707;DHT22;7953;54.302;10.128;2023-03-14T08:25:24;9.60;99.90
15707;DHT22;7953;54.302;10.128;2023-03-14T08:27:51;9.60;99.90
15707;DHT22;7953;54.302;10.128;2023-03-14T08:30:21;9.60;99.90
15707;DHT22;7953;54.302;10.128;2023-03-14T08:32:48;9.60;99.90
15707;DHT22;7953;54.302;10.128;2023-03-14T08:35:15;9.50;99.90
15707;DHT22;7953;54.302;10.128;2023-03-14T08:37:42;9.50;99.90
15707;DHT22;7953;54.302;10.128;2023-03-14T08:40:10;9.40;99.90
15707;DHT22;7953;54.302;10.128;2023-03-14T08:42:38;9.50;99.90
15707;DHT22;7953;54.302;10.128;2023-03-14T08:45:06;9.40;99.90
15707;DHT22;7953;54.302;10.128;2023-03-14T08:47:35;9.40;99.90
15707;DHT22;7953;54.302;10.128;2023-03-14T08:50:02;9.40;99.90
15707;DHT22;7953;54.302;10.128;2023-03-14T08:52:29;9.30;99.90
15707;DHT22;7953;54.302;10.128;2023-03-14T08:54:57;9.30;99.90
15707;DHT22;7953;54.302;10.128;2023-03-14T08:57:24;9.20;99.90
15707;DHT22;7953;54.302;10.128;2023-03-14T08:59:53;9.20;99.90
15707;DHT22;7953;54.302;10.128;2023-03-14T09:02:20;8.90;99.90
15707;DHT22;7953;54.302;10.128;2023-03-14T09:04:49;8.60;99.90
15707;DHT22;7953;54.302;10.128;2023-03-14T09:07:16;8.40;99.90
15707;DHT22;7953;54.302;10.128;2023-03-14T09:09:43;8.00;99.90
15707;DHT22;7953;54.302;10.128;2023-03-14T09:12:10;7.90;99.90
15707;DHT22;7953;54.302;10.128;2023-03-14T09:14:37;7.70;99.90
15707;DHT22;7953;54.302;10.128;2023-03-14T09:17:04;7.60;99.90
15707;DHT22;7953;54.302;10.128;2023-03-14T09:19:31;7.50;99.90
15707;DHT22;7953;54.302;10.128;2023-03-14T09:21:59;7.40;99.90
15707;DHT22;7953;54.302;10.128;2023-03-14T09:24:26;7.30;99.90
15707;DHT22;7953;54.302;10.128;2023-03-14T09:26:54;7.00;99.90
15707;DHT22;7953;54.302;10.128;2023-03-14T09:29:21;6.80;99.90
15707;DHT22;7953;54.302;10.128;2023-03-14T09:31:47;6.60;99.90
15707;DHT22;7953;54.302;10.128;2023-03-14T09:34:15;6.40;99.90
15707;DHT22;7953;54.302;10.128;2023-03-14T09:36:41;6.20;99.90
15707;DHT22;7953;54.302;10.128;2023-03-14T09:39:11;6.20;99.90
15707;DHT22;7953;54.302;10.128;2023-03-14T09:41:40;5.90;99.90
15707;DHT22;7953;54.302;10.128;2023-03-14T09:44:11;5.70;99.90
15707;DHT22;7953;54.302;10.128;2023-03-14T09:46:41;5.60;99.90
15707;DHT22;7953;54.302;10.128;2023-03-14T09:49:12;5.50;99.90
15707;DHT22;7953;54.302;10.128;2023-03-14T09:51:42;5.50;99.90
15707;DHT22;7953;54.302;10.128;2023-03-14T09:54:24;5.40;99.90
15707;DHT22;7953;54.302;10.128;2023-03-14T09:56:54;5.30;99.90
15707;DHT22;7953;54.302;10.128;2023-03-14T09:59:20;5.40;99.90
15707;DHT22;7953;54.302;10.128;2023-03-14T10:01:50;5.50;99.90
15707;DHT22;7953;54.302;10.128;2023-03-14T10:04:21;5.50;99.90
15707;DHT22;7953;54.302;10.128;2023-03-14T10:06:48;5.50;99.90
15707;DHT22;7953;54.302;10.128;2023-03-14T10:09:20;5.50;99.90
15707;DHT22;7953;54.302;10.128;2023-03-14T10:11:53;5.40;99.90
15707;DHT22;7953;54.302;10.128;2023-03-14T10:14:30;5.40;99.90
15707;DHT22;7953;54.302;10.128;2023-03-14T10:17:05;5.30;99.90
15707;DHT22;7953;54.302;10.128;2023-03-14T10:19:33;5.40;99.90
15707;DHT22;7953;54.302;10.128;2023-03-14T10:22:02;5.50;99.90
15707;DHT22;7953;54.302;10.128;2023-03-14T10:24:33;5.50;99.90
15707;DHT22;7953;54.302;10.128;2023-03-14T10:27:02;5.50;99.90
15707;DHT22;7953;54.302;10.128;2023-03-14T10:29:29;5.50;99.90
15707;DHT22;7953;54.302;10.128;2023-03-14T10:31:59;5.50;99.90
15707;DHT22;7953;54.302;10.128;2023-03-14T10:34:29;5.40;99.90
15707;DHT22;7953;54.302;10.128;2023-03-14T10:36:58;5.50;99.90
15707;DHT22;7953;54.302;10.128;2023-03-14T10:39:30;5.50;99.90
15707;DHT22;7953;54.302;10.128;2023-03-14T10:42:04;5.40;99.90
15707;DHT22;7953;54.302;10.128;2023-03-14T10:44:33;5.40;99.90
15707;DHT22;7953;54.302;10.128;2023-03-14T10:47:02;5.40;99.90
15707;DHT22;7953;54.302;10.128;2023-03-14T10:49:31;5.40;99.90
15707;DHT22;7953;54.302;10.128;2023-03-14T10:52:02;5.50;99.90
15707;DHT22;7953;54.302;10.128;2023-03-14T10:54:38;5.60;99.90
15707;DHT22;7953;54.302;10.128;2023-03-14T10:57:05;5.80;99.90
15707;DHT22;7953;54.302;10.128;2023-03-14T10:59:35;5.80;99.90
15707;DHT22;7953;54.302;10.128;2023-03-14T11:02:10;6.00;99.90
15707;DHT22;7953;54.302;10.128;2023-03-14T11:04:55;6.20;99.90
15707;DHT22;7953;54.302;10.128;2023-03-14T11:07:33;6.50;99.90
15707;DHT22;7953;54.302;10.128;2023-03-14T11:10:11;6.70;99.90
15707;DHT22;7953;54.302;10.128;2023-03-14T11:12:48;6.80;99.90
15707;DHT22;7953;54.302;10.128;2023-03-14T11:15:19;6.90;99.90
15707;DHT22;7953;54.302;10.128;2023-03-14T11:17:58;6.80;99.90
15707;DHT22;7953;54.302;10.128;2023-03-14T11:20:35;6.80;99.90
15707;DHT22;7953;54.302;10.128;2023-03-14T11:23:10;6.70;99.90
15707;DHT22;7953;54.302;10.128;2023-03-14T11:25:44;6.70;99.90
15707;DHT22;7953;54.302;10.128;2023-03-14T11:28:18;6.80;99.90
15707;DHT22;7953;54.302;10.128;2023-03-14T11:30:52;6.90;99.90
15707;DHT22;7953;54.302;10.128;2023-03-14T11:33:23;7.00;99.90
15707;DHT22;7953;54.302;10.128;2023-03-14T11:35:57;6.90;99.90
15707;DHT22;7953;54.302;10.128;2023-03-14T11:38:30;7.00;99.90
15707;DHT22;7953;54.302;10.128;2023-03-14T11:41:01;7.00;99.90
15707;DHT22;7953;54.302;10.128;2023-03-14T11:43:30;6.90;99.90
15707;DHT22;7953;54.302;10.128;2023-03-14T11:46:04;7.00;99.90
15707;DHT22;7953;54.302;10.128;2023-03-14T11:48:40;7.00;99.90
15707;DHT22;7953;54.302;10.128;2023-03-14T11:51:14;7.10;99.90
15707;DHT22;7953;54.302;10.128;2023-03-14T11:53:49;7.10;99.90
15707;DHT22;7953;54.302;10.128;2023-03-14T11:56:25;7.20;99.90
15707;DHT22;7953;54.302;10.128;2023-03-14T11:58:57;7.30;99.90
15707;DHT22;7953;54.302;10.128;2023-03-14T12:01:33;7.30;99.90
15707;DHT22;7953;54.302;10.128;2023-03-14T12:04:05;7.20;99.90
15707;DHT22;7953;54.302;10.128;2023-03-14T12:06:38;7.20;99.90
15707;DHT22;7953;54.302;10.128;2023-03-14T12:09:08;7.10;99.90
15707;DHT22;7953;54.302;10.128;2023-03-14T12:11:41;7.10;99.90
15707;DHT22;7953;54.302;10.128;2023-03-14T12:14:22;7.00;99.90
15707;DHT22;7953;54.302;10.128;2023-03-14T12:16:54;7.10;99.90
15707;DHT22;7953;54.302;10.128;2023-03-14T12:19:37;7.20;99.90
15707;DHT22;7953;54.302;10.128;2023-03-14T12:22:26;7.30;99.90
15707;DHT22;7953;54.302;10.128;2023-03-14T12:24:56;7.40;99.90
15707;DHT22;7953;54.302;10.128;2023-03-14T12:27:47;7.50;99.90
15707;DHT22;7953;54.302;10.128;2023-03-14T12:30:27;7.50;99.90
15707;DHT22;7953;54.302;10.128;2023-03-14T12:36:00;7.40;99.90
15707;DHT22;7953;54.302;10.128;2023-03-14T12:38:41;7.50;99.90
15707;DHT22;7953;54.302;10.128;2023-03-14T12:41:14;7.70;99.90
15707;DHT22;7953;54.302;10.128;2023-03-14T12:43:43;7.60;99.90
15707;DHT22;7953;54.302;10.128;2023-03-14T12:46:30;7.60;99.90
15707;DHT22;7953;54.302;10.128;2023-03-14T12:49:05;7.60;99.90
15707;DHT22;7953;54.302;10.128;2023-03-14T12:51:36;7.60;99.90
15707;DHT22;7953;54.302;10.128;2023-03-14T12:54:31;7.60;99.90
15707;DHT22;7953;54.302;10.128;2023-03-14T12:59:55;7.60;99.90
15707;DHT22;7953;54.302;10.128;2023-03-14T13:02:25;7.50;99.90
15707;DHT22;7953;54.302;10.128;2023-03-14T13:05:01;7.50;99.90
15707;DHT22;7953;54.302;10.128;2023-03-14T13:08:03;7.40;99.90
15707;DHT22;7953;54.302;10.128;2023-03-14T13:10:39;7.20;99.90
15707;DHT22;7953;54.302;10.128;2023-03-14T13:13:17;7.00;99.90
15707;DHT22;7953;54.302;10.128;2023-03-14T13:15:48;7.20;99.90
15707;DHT22;7953;54.302;10.128;2023-03-14T13:18:18;7.20;99.90
15707;DHT22;7953;54.302;10.128;2023-03-14T13:20:52;7.30;99.90
15707;DHT22;7953;54.302;10.128;2023-03-14T13:23:21;7.30;99.90
15707;DHT22;7953;54.302;10.128;2023-03-14T13:25:48;7.40;99.90
15707;DHT22;7953;54.302;10.128;2023-03-14T13:28:16;7.40;99.90
15707;DHT22;7953;54.302;10.128;2023-03-14T13:30:44;7.60;99.90
15707;DHT22;7953;54.302;10.128;2023-03-14T13:33:15;7.70;99.90
15707;DHT22;7953;54.302;10.128;2023-03-14T13:35:44;7.80;99.90
15707;DHT22;7953;54.302;10.128;2023-03-14T13:38:20;7.60;99.90
15707;DHT22;7953;54.302;10.128;2023-03-14T13:40:49;7.60;99.90
15707;DHT22;7953;54.302;10.128;2023-03-14T13:43:18;7.60;99.90
15707;DHT22;7953;54.302;10.128;2023-03-14T13:45:52;7.60;99.90
15707;DHT22;7953;54.302;10.128;2023-03-14T13:48:22;7.70;99.90
15707;DHT22;7953;54.302;10.128;2023-03-14T13:50:54;7.70;99.90
15707;DHT22;7953;54.302;10.128;2023-03-14T13:53:22;7.70;99.90
15707;DHT22;7953;54.302;10.128;2023-03-14T13:55:50;7.90;99.90
15707;DHT22;7953;54.302;10.128;2023-03-14T13:58:25;8.00;99.90
15707;DHT22;7953;54.302;10.128;2023-03-14T14:01:05;8.00;99.90
15707;DHT22;7953;54.302;10.128;2023-03-14T14:03:36;7.90;99.90
15707;DHT22;7953;54.302;10.128;2023-03-14T14:06:07;7.70;99.90
15707;DHT22;7953;54.302;10.128;2023-03-14T14:08:35;7.50;99.90
15707;DHT22;7953;54.302;10.128;2023-03-14T14:11:02;7.40;99.90
15707;DHT22;7953;54.302;10.128;2023-03-14T14:13:32;7.40;99.90
15707;DHT22;7953;54.302;10.128;2023-03-14T14:16:00;7.40;99.90
15707;DHT22;7953;54.302;10.128;2023-03-14T14:18:30;7.40;99.90
15707;DHT22;7953;54.302;10.128;2023-03-14T14:20:59;7.40;99.90
15707;DHT22;7953;54.302;10.128;2023-03-14T14:23:28;7.50;99.90
15707;DHT22;7953;54.302;10.128;2023-03-14T14:25:57;7.30;99.90
15707;DHT22;7953;54.302;10.128;2023-03-14T14:28:26;7.00;99.90
15707;DHT22;7953;54.302;10.128;2023-03-14T14:31:02;7.10;99.90
15707;DHT22;7953;54.302;10.128;2023-03-14T14:33:29;7.20;99.90
15707;DHT22;7953;54.302;10.128;2023-03-14T14:36:14;7.20;99.90
15707;DHT22;7953;54.302;10.128;2023-03-14T14:38:41;7.20;99.90
15707;DHT22;7953;54.302;10.128;2023-03-14T14:41:11;7.10;99.90
15707;DHT22;7953;54.302;10.128;2023-03-14T14:43:39;6.90;99.90
15707;DHT22;7953;54.302;10.128;2023-03-14T14:46:08;6.80;99.90
15707;DHT22;7953;54.302;10.128;2023-03-14T14:48:37;6.70;99.90
15707;DHT22;7953;54.302;10.128;2023-03-14T14:51:07;6.60;99.90
15707;DHT22;7953;54.302;10.128;2023-03-14T14:53:37;6.50;99.90
15707;DHT22;7953;54.302;10.128;2023-03-14T14:56:06;6.50;99.90
15707;DHT22;7953;54.302;10.128;2023-03-14T14:58:35;6.40;99.90
15707;DHT22;7953;54.302;10.128;2023-03-14T15:01:07;6.50;99.90
15707;DHT22;7953;54.302;10.128;2023-03-14T15:03:34;6.60;99.90
15707;DHT22;7953;54.302;10.128;2023-03-14T15:06:02;6.60;99.90
15707;DHT22;7953;54.302;10.128;2023-03-14T15:08:30;6.60;99.90
15707;DHT22;7953;54.302;10.128;2023-03-14T15:10:58;6.60;99.90
15707;DHT22;7953;54.302;10.128;2023-03-14T15:13:25;6.60;99.90
15707;DHT22;7953;54.302;10.128;2023-03-14T15:15:52;6.50;99.90
15707;DHT22;7953;54.302;10.128;2023-03-14T15:18:22;6.50;99.90
15707;DHT22;7953;54.302;10.128;2023-03-14T15:20:50;6.60;99.90
15707;DHT22;7953;54.302;10.128;2023-03-14T15:23:18;6.60;99.90
15707;DHT22;7953;54.302;10.128;2023-03-14T15:25:47;6.80;99.90
15707;DHT22;7953;54.302;10.128;2023-03-14T15:28:16;6.90;99.90
15707;DHT22;7953;54.302;10.128;2023-03-14T15:30:46;6.90;99.90
15707;DHT22;7953;54.302;10.128;2023-03-14T15:33:13;7.00;99.90
15707;DHT22;7953;54.302;10.128;2023-03-14T15:35:40;7.00;99.90
15707;DHT22;7953;54.302;10.128;2023-03-14T15:38:10;6.90;99.90
15707;DHT22;7953;54.302;10.128;2023-03-14T15:40:38;6.70;99.90
15707;DHT22;7953;54.302;10.128;2023-03-14T15:43:06;6.60;99.90
15707;DHT22;7953;54.302;10.128;2023-03-14T15:45:34;6.60;99.90
15707;DHT22;7953;54.302;10.128;2023-03-14T15:48:01;6.60;99.90
15707;DHT22;7953;54.302;10.128;2023-03-14T15:50:28;6.40;99.90
15707;DHT22;7953;54.302;10.128;2023-03-14T15:52:55;6.40;99.90
15707;DHT22;7953;54.302;10.128;2023-03-14T15:55:22;6.50;99.90
15707;DHT22;7953;54.302;10.128;2023-03-14T15:57:49;6.60;99.90
15707;DHT22;7953;54.302;10.128;2023-03-14T16:00:19;6.60;99.90